sensor_id;sensor_type;location;lat;lon;timestamp;pressure;altitude;pressure_sealevel;temperature;humidity
51849;BME280;38952;51.090;-1.832;2023-05-25T00:02:03;101434.00;;;12.31;66.27
51849;BME280;38952;51.090;-1.832;2023-05-25T00:04:31;101428.44;;;12.26;67.08
51849;BME280;38952;51.090;-1.832;2023-05-25T00:07:02;101432.19;;;12.20;67.22
51849;BME280;38952;51.090;-1.832;2023-05-25T00:09:28;101433.72;;;12.11;67.16
51849;BME280;38952;51.090;-1.832;2023-05-25T00:11:53;101427.91;;;12.07;67.56
51849;BME280;38952;51.090;-1.832;2023-05-25T00:14:19;101436.88;;;12.02;67.84
51849;BME280;38952;51.090;-1.832;2023-05-25T00:16:45;101429.66;;;11.96;67.74
51849;BME280;38952;51.090;-1.832;2023-05-25T00:19:12;101438.00;;;11.90;68.37
51849;BME280;38952;51.090;-1.832;2023-05-25T00:21:38;101431.56;;;11.79;68.54
51849;BME280;38952;51.090;-1.832;2023-05-25T00:24:04;101441.03;;;11.71;68.87
51849;BME280;38952;51.090;-1.832;2023-05-25T00:26:30;101441.19;;;11.64;69.02
51849;BME280;38952;51.090;-1.832;2023-05-25T00:28:55;101440.59;;;11.62;69.04
51849;BME280;38952;51.090;-1.832;2023-05-25T00:31:21;101442.19;;;11.58;69.34
51849;BME280;38952;51.090;-1.832;2023-05-25T00:33:46;101438.84;;;11.56;69.33
51849;BME280;38952;51.090;-1.832;2023-05-25T00:36:11;101432.69;;;11.49;69.22
51849;BME280;38952;51.090;-1.832;2023-05-25T00:38:37;101441.50;;;11.51;69.21
51849;BME280;38952;51.090;-1.832;2023-05-25T00:41:02;101451.84;;;11.49;69.51
51849;BME280;38952;51.090;-1.832;2023-05-25T00:43:30;101455.94;;;11.46;69.82
51849;BME280;38952;51.090;-1.832;2023-05-25T00:45:55;101461.69;;;11.45;69.84
51849;BME280;38952;51.090;-1.832;2023-05-25T00:48:24;101449.78;;;11.39;69.56
51849;BME280;38952;51.090;-1.832;2023-05-25T00:50:55;101471.34;;;11.35;69.87
51849;BME280;38952;51.090;-1.832;2023-05-25T00:53:24;101457.56;;;11.30;70.22
51849;BME280;38952;51.090;-1.832;2023-05-25T00:56:34;101474.69;;;11.38;70.44
51849;BME280;38952;51.090;-1.832;2023-05-25T00:58:39;101482.78;;;11.32;70.04
51849;BME280;38952;51.090;-1.832;2023-05-25T01:01:08;101484.09;;;11.30;70.01
51849;BME280;38952;51.090;-1.832;2023-05-25T01:03:38;101469.97;;;11.21;70.16
51849;BME280;38952;51.090;-1.832;2023-05-25T01:06:11;101478.31;;;11.26;70.73
51849;BME280;38952;51.090;-1.832;2023-05-25T01:08:41;101483.66;;;11.21;70.83
51849;BME280;38952;51.090;-1.832;2023-05-25T01:11:10;101484.75;;;11.20;70.53
51849;BME280;38952;51.090;-1.832;2023-05-25T01:13:37;101487.38;;;11.15;70.62
51849;BME280;38952;51.090;-1.832;2023-05-25T01:16:05;101483.38;;;11.06;70.87
51849;BME280;38952;51.090;-1.832;2023-05-25T01:18:31;101484.44;;;11.05;70.86
51849;BME280;38952;51.090;-1.832;2023-05-25T01:27:02;101484.81;;;10.96;70.95
51849;BME280;38952;51.090;-1.832;2023-05-25T01:29:31;101492.47;;;10.94;71.33
51849;BME280;38952;51.090;-1.832;2023-05-25T01:31:58;101492.13;;;10.91;71.78
51849;BME280;38952;51.090;-1.832;2023-05-25T01:34:23;101499.25;;;10.92;71.84
51849;BME280;38952;51.090;-1.832;2023-05-25T01:36:50;101495.06;;;10.89;72.33
51849;BME280;38952;51.090;-1.832;2023-05-25T01:39:15;101490.09;;;10.86;71.84
51849;BME280;38952;51.090;-1.832;2023-05-25T01:41:41;101495.22;;;10.82;71.96
51849;BME280;38952;51.090;-1.832;2023-05-25T01:44:07;101489.38;;;10.79;72.45
51849;BME280;38952;51.090;-1.832;2023-05-25T01:46:37;101488.69;;;10.72;72.66
51849;BME280;38952;51.090;-1.832;2023-05-25T01:51:57;101495.13;;;10.65;72.49
51849;BME280;38952;51.090;-1.832;2023-05-25T01:54:35;101501.22;;;10.68;72.52
51849;BME280;38952;51.090;-1.832;2023-05-25T01:57:05;101498.47;;;10.68;72.87
51849;BME280;38952;51.090;-1.832;2023-05-25T01:59:32;101493.50;;;10.64;72.71
51849;BME280;38952;51.090;-1.832;2023-05-25T02:01:59;101506.06;;;10.65;72.80
51849;BME280;38952;51.090;-1.832;2023-05-25T02:04:25;101508.22;;;10.63;73.08
51849;BME280;38952;51.090;-1.832;2023-05-25T02:06:51;101507.84;;;10.60;72.91
51849;BME280;38952;51.090;-1.832;2023-05-25T02:09:17;101515.00;;;10.61;73.04
51849;BME280;38952;51.090;-1.832;2023-05-25T02:11:42;101507.03;;;10.59;73.56
51849;BME280;38952;51.090;-1.832;2023-05-25T02:14:08;101514.19;;;10.60;73.05
51849;BME280;38952;51.090;-1.832;2023-05-25T02:16:35;101512.16;;;10.56;73.29
51849;BME280;38952;51.090;-1.832;2023-05-25T02:19:00;101516.31;;;10.58;73.53
51849;BME280;38952;51.090;-1.832;2023-05-25T02:21:26;101522.25;;;10.55;73.54
51849;BME280;38952;51.090;-1.832;2023-05-25T02:23:52;101513.47;;;10.53;74.25
51849;BME280;38952;51.090;-1.832;2023-05-25T02:26:22;101523.56;;;10.53;74.48
51849;BME280;38952;51.090;-1.832;2023-05-25T02:28:48;101513.47;;;10.53;73.94
51849;BME280;38952;51.090;-1.832;2023-05-25T02:31:13;101522.75;;;10.52;73.73
51849;BME280;38952;51.090;-1.832;2023-05-25T02:33:38;101521.44;;;10.55;74.14
51849;BME280;38952;51.090;-1.832;2023-05-25T02:36:04;101523.56;;;10.53;74.28
51849;BME280;38952;51.090;-1.832;2023-05-25T02:38:30;101512.88;;;10.51;74.58
51849;BME280;38952;51.090;-1.832;2023-05-25T02:40:55;101513.97;;;10.50;74.26
51849;BME280;38952;51.090;-1.832;2023-05-25T02:43:21;101514.44;;;10.47;74.33
51849;BME280;38952;51.090;-1.832;2023-05-25T02:45:46;101505.63;;;10.45;74.59
51849;BME280;38952;51.090;-1.832;2023-05-25T02:48:12;101506.69;;;10.44;74.87
51849;BME280;38952;51.090;-1.832;2023-05-25T02:50:37;101516.31;;;10.46;74.47
51849;BME280;38952;51.090;-1.832;2023-05-25T02:53:03;101507.28;;;10.46;74.72
51849;BME280;38952;51.090;-1.832;2023-05-25T02:55:28;101509.41;;;10.44;74.95
51849;BME280;38952;51.090;-1.832;2023-05-25T02:57:54;101517.03;;;10.42;74.89
51849;BME280;38952;51.090;-1.832;2023-05-25T03:00:19;101510.75;;;10.41;74.98
51849;BME280;38952;51.090;-1.832;2023-05-25T03:02:45;101511.56;;;10.42;75.28
51849;BME280;38952;51.090;-1.832;2023-05-25T03:05:13;101512.75;;;10.46;75.64
51849;BME280;38952;51.090;-1.832;2023-05-25T03:07:39;101515.38;;;10.41;75.21
51849;BME280;38952;51.090;-1.832;2023-05-25T03:10:05;101520.84;;;10.41;75.52
51849;BME280;38952;51.090;-1.832;2023-05-25T03:12:30;101518.56;;;10.38;76.03
51849;BME280;38952;51.090;-1.832;2023-05-25T03:14:56;101525.16;;;10.37;76.32
51849;BME280;38952;51.090;-1.832;2023-05-25T03:17:21;101520.56;;;10.30;76.12
51849;BME280;38952;51.090;-1.832;2023-05-25T03:19:47;101530.19;;;10.33;76.17
51849;BME280;38952;51.090;-1.832;2023-05-25T03:22:12;101533.78;;;10.34;76.56
51849;BME280;38952;51.090;-1.832;2023-05-25T03:24:38;101515.56;;;10.27;76.63
51849;BME280;38952;51.090;-1.832;2023-05-25T03:27:06;101528.78;;;10.30;76.91
51849;BME280;38952;51.090;-1.832;2023-05-25T03:29:32;101529.84;;;10.29;76.89
51849;BME280;38952;51.090;-1.832;2023-05-25T03:31:58;101531.16;;;10.27;77.36
51849;BME280;38952;51.090;-1.832;2023-05-25T03:34:27;101529.72;;;10.24;77.36
51849;BME280;38952;51.090;-1.832;2023-05-25T03:36:56;101529.13;;;10.22;77.78
51849;BME280;38952;51.090;-1.832;2023-05-25T03:39:21;101526.28;;;10.17;77.88
51849;BME280;38952;51.090;-1.832;2023-05-25T03:41:47;101527.94;;;10.18;77.80
51849;BME280;38952;51.090;-1.832;2023-05-25T03:44:13;101519.13;;;10.16;77.73
51849;BME280;38952;51.090;-1.832;2023-05-25T03:46:38;101519.75;;;10.18;78.31
51849;BME280;38952;51.090;-1.832;2023-05-25T03:49:04;101517.00;;;10.18;78.40
51849;BME280;38952;51.090;-1.832;2023-05-25T03:51:30;101511.53;;;10.18;78.23
51849;BME280;38952;51.090;-1.832;2023-05-25T03:53:55;101524.16;;;10.19;78.12
51849;BME280;38952;51.090;-1.832;2023-05-25T03:56:21;101511.66;;;10.11;78.41
51849;BME280;38952;51.090;-1.832;2023-05-25T03:58:47;101524.59;;;10.16;78.51
51849;BME280;38952;51.090;-1.832;2023-05-25T04:01:13;101522.94;;;10.15;78.70
51849;BME280;38952;51.090;-1.832;2023-05-25T04:03:38;101520.94;;;10.10;78.79
51849;BME280;38952;51.090;-1.832;2023-05-25T04:06:04;101529.47;;;10.14;78.91
51849;BME280;38952;51.090;-1.832;2023-05-25T04:08:30;101523.44;;;10.12;79.42
51849;BME280;38952;51.090;-1.832;2023-05-25T04:10:55;101526.59;;;10.09;79.49
51849;BME280;38952;51.090;-1.832;2023-05-25T04:13:21;101524.59;;;10.16;79.62
51849;BME280;38952;51.090;-1.832;2023-05-25T04:15:48;101534.59;;;10.22;79.24
51849;BME280;38952;51.090;-1.832;2023-05-25T04:18:14;101535.44;;;10.23;79.50
51849;BME280;38952;51.090;-1.832;2023-05-25T04:20:39;101528.66;;;10.25;79.84
51849;BME280;38952;51.090;-1.832;2023-05-25T04:23:05;101533.66;;;10.28;79.75
51849;BME280;38952;51.090;-1.832;2023-05-25T04:25:30;101530.31;;;10.26;79.35
51849;BME280;38952;51.090;-1.832;2023-05-25T04:27:56;101523.69;;;10.22;79.48
51849;BME280;38952;51.090;-1.832;2023-05-25T04:30:22;101529.25;;;10.27;80.35
51849;BME280;38952;51.090;-1.832;2023-05-25T04:32:48;101528.19;;;10.28;79.80
51849;BME280;38952;51.090;-1.832;2023-05-25T04:35:13;101536.53;;;10.34;79.87
51849;BME280;38952;51.090;-1.832;2023-05-25T04:37:40;101527.25;;;10.35;79.74
51849;BME280;38952;51.090;-1.832;2023-05-25T04:40:08;101537.25;;;10.41;80.15
51849;BME280;38952;51.090;-1.832;2023-05-25T04:42:38;101534.28;;;10.42;80.20
51849;BME280;38952;51.090;-1.832;2023-05-25T04:45:06;101539.88;;;10.47;79.94
51849;BME280;38952;51.090;-1.832;2023-05-25T04:47:34;101552.09;;;10.57;79.52
51849;BME280;38952;51.090;-1.832;2023-05-25T04:50:02;101553.53;;;10.59;79.82
51849;BME280;38952;51.090;-1.832;2023-05-25T04:52:28;101557.56;;;10.69;79.15
51849;BME280;38952;51.090;-1.832;2023-05-25T04:54:53;101556.16;;;10.78;79.14
51849;BME280;38952;51.090;-1.832;2023-05-25T04:57:19;101563.72;;;10.88;79.28
51849;BME280;38952;51.090;-1.832;2023-05-25T04:59:44;101558.97;;;10.95;79.28
51849;BME280;38952;51.090;-1.832;2023-05-25T05:02:10;101568.34;;;11.11;78.57
51849;BME280;38952;51.090;-1.832;2023-05-25T05:04:35;101557.59;;;11.21;78.35
51849;BME280;38952;51.090;-1.832;2023-05-25T05:07:01;101560.97;;;11.40;78.41
51849;BME280;38952;51.090;-1.832;2023-05-25T05:09:27;101557.03;;;11.48;77.69
51849;BME280;38952;51.090;-1.832;2023-05-25T05:11:52;101575.13;;;11.49;77.85
51849;BME280;38952;51.090;-1.832;2023-05-25T05:14:18;101568.63;;;11.38;77.62
51849;BME280;38952;51.090;-1.832;2023-05-25T05:16:43;101581.94;;;11.34;77.72
51849;BME280;38952;51.090;-1.832;2023-05-25T05:19:09;101585.66;;;11.28;77.98
51849;BME280;38952;51.090;-1.832;2023-05-25T05:21:37;101577.56;;;11.33;77.42
51849;BME280;38952;51.090;-1.832;2023-05-25T05:24:03;101584.94;;;11.45;77.31
51849;BME280;38952;51.090;-1.832;2023-05-25T05:26:31;101582.28;;;11.50;77.32
51849;BME280;38952;51.090;-1.832;2023-05-25T05:28:56;101588.44;;;11.57;76.77
51849;BME280;38952;51.090;-1.832;2023-05-25T05:31:22;101584.03;;;11.56;76.58
51849;BME280;38952;51.090;-1.832;2023-05-25T05:33:50;101583.06;;;11.62;76.84
51849;BME280;38952;51.090;-1.832;2023-05-25T05:36:16;101593.53;;;11.65;76.82
51849;BME280;38952;51.090;-1.832;2023-05-25T05:38:41;101598.03;;;11.72;76.48
51849;BME280;38952;51.090;-1.832;2023-05-25T05:41:08;101601.47;;;11.79;76.41
51849;BME280;38952;51.090;-1.832;2023-05-25T05:43:38;101596.66;;;11.86;76.17
51849;BME280;38952;51.090;-1.832;2023-05-25T05:46:06;101596.72;;;11.91;76.40
51849;BME280;38952;51.090;-1.832;2023-05-25T05:48:31;101585.06;;;11.96;76.25
51849;BME280;38952;51.090;-1.832;2023-05-25T05:50:57;101592.06;;;12.03;76.14
51849;BME280;38952;51.090;-1.832;2023-05-25T05:53:27;101598.53;;;12.14;76.00
51849;BME280;38952;51.090;-1.832;2023-05-25T05:55:55;101590.75;;;12.23;75.99
51849;BME280;38952;51.090;-1.832;2023-05-25T05:58:26;101594.72;;;12.32;75.43
51849;BME280;38952;51.090;-1.832;2023-05-25T06:00:53;101591.06;;;12.44;75.29
51849;BME280;38952;51.090;-1.832;2023-05-25T06:03:22;101597.22;;;12.51;74.59
51849;BME280;38952;51.090;-1.832;2023-05-25T06:05:48;101595.75;;;12.60;74.63
51849;BME280;38952;51.090;-1.832;2023-05-25T06:08:13;101594.72;;;12.66;74.60
51849;BME280;38952;51.090;-1.832;2023-05-25T06:10:39;101601.53;;;12.81;74.56
51849;BME280;38952;51.090;-1.832;2023-05-25T06:13:04;101605.50;;;12.90;74.04
51849;BME280;38952;51.090;-1.832;2023-05-25T06:15:32;101588.84;;;12.97;74.30
51849;BME280;38952;51.090;-1.832;2023-05-25T06:17:58;101598.59;;;13.09;74.18
51849;BME280;38952;51.090;-1.832;2023-05-25T06:20:23;101609.81;;;13.25;73.73
51849;BME280;38952;51.090;-1.832;2023-05-25T06:22:48;101607.22;;;13.35;73.37
51849;BME280;38952;51.090;-1.832;2023-05-25T06:25:16;101616.22;;;13.53;73.34
51849;BME280;38952;51.090;-1.832;2023-05-25T06:27:42;101609.75;;;13.64;73.01
51849;BME280;38952;51.090;-1.832;2023-05-25T06:30:07;101619.72;;;13.70;72.59
51849;BME280;38952;51.090;-1.832;2023-05-25T06:32:33;101612.66;;;13.79;72.13
51849;BME280;38952;51.090;-1.832;2023-05-25T06:34:59;101609.13;;;13.84;72.00
51849;BME280;38952;51.090;-1.832;2023-05-25T06:37:25;101620.03;;;14.01;71.59
51849;BME280;38952;51.090;-1.832;2023-05-25T06:39:50;101620.47;;;14.15;71.12
51849;BME280;38952;51.090;-1.832;2023-05-25T06:42:16;101618.81;;;14.19;71.21
51849;BME280;38952;51.090;-1.832;2023-05-25T06:44:41;101624.66;;;14.28;71.05
51849;BME280;38952;51.090;-1.832;2023-05-25T06:47:07;101629.19;;;14.39;70.93
51849;BME280;38952;51.090;-1.832;2023-05-25T06:49:32;101633.69;;;14.51;70.67
51849;BME280;38952;51.090;-1.832;2023-05-25T06:51:58;101627.44;;;14.60;69.74
51849;BME280;38952;51.090;-1.832;2023-05-25T06:54:23;101633.06;;;14.76;69.60
51849;BME280;38952;51.090;-1.832;2023-05-25T06:56:50;101636.81;;;14.97;68.98
51849;BME280;38952;51.090;-1.832;2023-05-25T06:59:15;101632.00;;;15.25;68.26
51849;BME280;38952;51.090;-1.832;2023-05-25T07:01:44;101632.63;;;15.47;67.33
51849;BME280;38952;51.090;-1.832;2023-05-25T07:04:10;101629.41;;;15.76;66.85
51849;BME280;38952;51.090;-1.832;2023-05-25T07:06:35;101623.97;;;15.92;66.06
51849;BME280;38952;51.090;-1.832;2023-05-25T07:09:01;101633.34;;;16.06;65.41
51849;BME280;38952;51.090;-1.832;2023-05-25T07:11:26;101633.94;;;16.13;65.38
51849;BME280;38952;51.090;-1.832;2023-05-25T07:13:52;101641.41;;;16.28;65.05
51849;BME280;38952;51.090;-1.832;2023-05-25T07:16:17;101643.88;;;16.45;64.80
51849;BME280;38952;51.090;-1.832;2023-05-25T07:18:42;101630.91;;;16.71;63.84
51849;BME280;38952;51.090;-1.832;2023-05-25T07:21:08;101638.88;;;16.93;63.55
51849;BME280;38952;51.090;-1.832;2023-05-25T07:23:34;101636.34;;;17.13;63.05
51849;BME280;38952;51.090;-1.832;2023-05-25T07:26:00;101641.28;;;17.36;62.54
51849;BME280;38952;51.090;-1.832;2023-05-25T07:28:26;101648.63;;;17.61;61.76
51849;BME280;38952;51.090;-1.832;2023-05-25T07:30:51;101639.13;;;17.83;60.90
51849;BME280;38952;51.090;-1.832;2023-05-25T07:33:17;101647.84;;;18.06;59.81
51849;BME280;38952;51.090;-1.832;2023-05-25T07:35:42;101656.06;;;18.21;59.32
51849;BME280;38952;51.090;-1.832;2023-05-25T07:38:08;101650.09;;;18.38;59.17
51849;BME280;38952;51.090;-1.832;2023-05-25T07:40:33;101656.06;;;18.56;58.13
51849;BME280;38952;51.090;-1.832;2023-05-25T07:42:59;101658.47;;;18.67;57.03
51849;BME280;38952;51.090;-1.832;2023-05-25T07:45:25;101667.19;;;18.80;56.77
51849;BME280;38952;51.090;-1.832;2023-05-25T07:47:50;101663.84;;;18.88;56.75
51849;BME280;38952;51.090;-1.832;2023-05-25T07:50:16;101672.28;;;19.02;56.19
51849;BME280;38952;51.090;-1.832;2023-05-25T07:52:41;101679.09;;;19.15;55.92
51849;BME280;38952;51.090;-1.832;2023-05-25T07:55:07;101666.22;;;19.24;55.58
51849;BME280;38952;51.090;-1.832;2023-05-25T07:57:33;101671.00;;;19.18;54.94
51849;BME280;38952;51.090;-1.832;2023-05-25T07:59:59;101685.34;;;19.26;54.81
51849;BME280;38952;51.090;-1.832;2023-05-25T08:02:25;101682.25;;;19.27;54.82
51849;BME280;38952;51.090;-1.832;2023-05-25T08:04:50;101685.59;;;19.29;54.19
51849;BME280;38952;51.090;-1.832;2023-05-25T08:07:19;101679.00;;;19.20;54.00
51849;BME280;38952;51.090;-1.832;2023-05-25T08:09:47;101682.84;;;19.24;54.15
51849;BME280;38952;51.090;-1.832;2023-05-25T08:12:13;101672.81;;;19.28;53.80
51849;BME280;38952;51.090;-1.832;2023-05-25T08:14:38;101689.19;;;19.54;54.04
51849;BME280;38952;51.090;-1.832;2023-05-25T08:17:04;101685.69;;;19.67;53.29
51849;BME280;38952;51.090;-1.832;2023-05-25T08:19:30;101688.97;;;19.94;52.93
51849;BME280;38952;51.090;-1.832;2023-05-25T08:21:57;101693.25;;;20.24;52.50
51849;BME280;38952;51.090;-1.832;2023-05-25T08:24:22;101682.19;;;20.38;52.04
51849;BME280;38952;51.090;-1.832;2023-05-25T08:26:48;101699.56;;;20.49;51.95
51849;BME280;38952;51.090;-1.832;2023-05-25T08:29:13;101682.72;;;20.59;51.57
51849;BME280;38952;51.090;-1.832;2023-05-25T08:31:39;101698.44;;;20.83;50.70
51849;BME280;38952;51.090;-1.832;2023-05-25T08:34:08;101693.94;;;21.01;50.77
51849;BME280;38952;51.090;-1.832;2023-05-25T08:36:33;101688.94;;;21.17;50.21
51849;BME280;38952;51.090;-1.832;2023-05-25T08:39:00;101698.09;;;21.17;49.46
51849;BME280;38952;51.090;-1.832;2023-05-25T08:41:26;101698.31;;;21.21;49.22
51849;BME280;38952;51.090;-1.832;2023-05-25T08:43:52;101693.59;;;21.35;48.15
51849;BME280;38952;51.090;-1.832;2023-05-25T08:46:28;101699.91;;;21.69;47.89
51849;BME280;38952;51.090;-1.832;2023-05-25T08:49:13;101705.59;;;22.51;46.16
51849;BME280;38952;51.090;-1.832;2023-05-25T08:51:50;101701.63;;;22.97;44.96
51849;BME280;38952;51.090;-1.832;2023-05-25T08:54:18;101698.75;;;22.57;44.68
51849;BME280;38952;51.090;-1.832;2023-05-25T08:56:54;101703.34;;;22.02;45.60
51849;BME280;38952;51.090;-1.832;2023-05-25T09:00:04;101706.63;;;21.54;45.60
51849;BME280;38952;51.090;-1.832;2023-05-25T09:02:49;101693.03;;;21.05;45.44
51849;BME280;38952;51.090;-1.832;2023-05-25T09:05:19;101693.44;;;20.99;45.71
51849;BME280;38952;51.090;-1.832;2023-05-25T09:07:45;101694.78;;;21.01;45.59
51849;BME280;38952;51.090;-1.832;2023-05-25T09:10:11;101691.16;;;20.87;45.75
51849;BME280;38952;51.090;-1.832;2023-05-25T09:12:38;101692.97;;;20.78;46.15
51849;BME280;38952;51.090;-1.832;2023-05-25T09:15:04;101692.88;;;20.83;45.95
51849;BME280;38952;51.090;-1.832;2023-05-25T09:17:29;101702.28;;;20.87;45.95
51849;BME280;38952;51.090;-1.832;2023-05-25T09:19:55;101693.31;;;20.90;45.76
51849;BME280;38952;51.090;-1.832;2023-05-25T09:22:21;101688.28;;;20.92;45.74
51849;BME280;38952;51.090;-1.832;2023-05-25T09:24:46;101697.66;;;20.96;45.06
51849;BME280;38952;51.090;-1.832;2023-05-25T09:27:17;101697.69;;;21.10;45.23
51849;BME280;38952;51.090;-1.832;2023-05-25T09:29:45;101695.59;;;21.16;45.14
51849;BME280;38952;51.090;-1.832;2023-05-25T09:32:11;101696.03;;;21.23;45.19
51849;BME280;38952;51.090;-1.832;2023-05-25T09:34:37;101697.59;;;21.29;45.16
51849;BME280;38952;51.090;-1.832;2023-05-25T09:37:05;101702.75;;;21.22;45.05
51849;BME280;38952;51.090;-1.832;2023-05-25T09:39:34;101695.22;;;21.22;45.31
51849;BME280;38952;51.090;-1.832;2023-05-25T09:42:00;101700.59;;;21.47;45.92
51849;BME280;38952;51.090;-1.832;2023-05-25T09:44:26;101694.22;;;21.60;45.19
51849;BME280;38952;51.090;-1.832;2023-05-25T09:46:52;101694.41;;;21.77;44.97
51849;BME280;38952;51.090;-1.832;2023-05-25T09:49:22;101691.38;;;22.02;44.65
51849;BME280;38952;51.090;-1.832;2023-05-25T09:51:59;101695.59;;;22.72;43.94
51849;BME280;38952;51.090;-1.832;2023-05-25T09:54:35;101675.25;;;23.92;41.77
51849;BME280;38952;51.090;-1.832;2023-05-25T09:57:04;101678.88;;;25.10;40.10
51849;BME280;38952;51.090;-1.832;2023-05-25T09:59:40;101701.34;;;26.42;38.13
51849;BME280;38952;51.090;-1.832;2023-05-25T10:02:07;101699.25;;;27.30;36.02
51849;BME280;38952;51.090;-1.832;2023-05-25T10:04:36;101681.94;;;27.65;35.32
51849;BME280;38952;51.090;-1.832;2023-05-25T10:07:24;101668.69;;;27.91;34.34
51849;BME280;38952;51.090;-1.832;2023-05-25T10:09:58;101671.69;;;28.38;33.20
51849;BME280;38952;51.090;-1.832;2023-05-25T10:12:32;101685.72;;;28.95;31.44
51849;BME280;38952;51.090;-1.832;2023-05-25T10:15:01;101677.38;;;29.47;30.66
51849;BME280;38952;51.090;-1.832;2023-05-25T10:17:32;101676.72;;;30.24;30.03
51849;BME280;38952;51.090;-1.832;2023-05-25T10:20:06;101677.47;;;31.03;28.85
51849;BME280;38952;51.090;-1.832;2023-05-25T10:28:01;101671.03;;;33.85;26.03
51849;BME280;38952;51.090;-1.832;2023-05-25T10:30:31;101682.34;;;35.42;24.69
51849;BME280;38952;51.090;-1.832;2023-05-25T10:33:00;101682.69;;;35.87;23.33
51849;BME280;38952;51.090;-1.832;2023-05-25T10:35:40;101682.50;;;36.27;23.16
51849;BME280;38952;51.090;-1.832;2023-05-25T10:38:11;101663.50;;;36.83;22.38
51849;BME280;38952;51.090;-1.832;2023-05-25T10:40:40;101671.00;;;36.52;21.94
51849;BME280;38952;51.090;-1.832;2023-05-25T10:43:08;101665.19;;;36.66;21.38
51849;BME280;38952;51.090;-1.832;2023-05-25T10:45:34;101671.13;;;37.43;20.73
51849;BME280;38952;51.090;-1.832;2023-05-25T10:48:02;101673.78;;;37.99;20.74
51849;BME280;38952;51.090;-1.832;2023-05-25T10:50:35;101681.78;;;38.42;20.88
51849;BME280;38952;51.090;-1.832;2023-05-25T10:53:07;101687.53;;;40.44;19.15
51849;BME280;38952;51.090;-1.832;2023-05-25T10:58:15;101679.31;;;40.46;17.31
51849;BME280;38952;51.090;-1.832;2023-05-25T11:04:15;101685.25;;;38.57;18.03
51849;BME280;38952;51.090;-1.832;2023-05-25T11:09:43;101673.31;;;37.24;18.50
51849;BME280;38952;51.090;-1.832;2023-05-25T11:12:21;101642.03;;;34.39;20.21
51849;BME280;38952;51.090;-1.832;2023-05-25T11:15:11;101675.25;;;37.38;19.21
51849;BME280;38952;51.090;-1.832;2023-05-25T11:18:05;101671.09;;;39.48;17.41
51849;BME280;38952;51.090;-1.832;2023-05-25T11:20:38;101668.53;;;40.34;16.84
51849;BME280;38952;51.090;-1.832;2023-05-25T11:23:21;101671.56;;;41.88;16.17
51849;BME280;38952;51.090;-1.832;2023-05-25T11:25:47;101675.34;;;42.79;15.56
51849;BME280;38952;51.090;-1.832;2023-05-25T11:28:12;101667.28;;;42.99;15.31
51849;BME280;38952;51.090;-1.832;2023-05-25T11:30:40;101663.88;;;41.85;14.82
51849;BME280;38952;51.090;-1.832;2023-05-25T11:33:10;101661.06;;;42.11;15.03
51849;BME280;38952;51.090;-1.832;2023-05-25T11:35:43;101651.84;;;43.06;14.34
51849;BME280;38952;51.090;-1.832;2023-05-25T11:38:27;101655.75;;;43.47;12.86
51849;BME280;38952;51.090;-1.832;2023-05-25T11:40:52;101648.22;;;43.28;12.78
51849;BME280;38952;51.090;-1.832;2023-05-25T11:43:21;101637.91;;;43.39;12.80
51849;BME280;38952;51.090;-1.832;2023-05-25T11:45:58;101626.06;;;43.82;12.96
51849;BME280;38952;51.090;-1.832;2023-05-25T11:48:29;101642.13;;;44.14;12.50
51849;BME280;38952;51.090;-1.832;2023-05-25T11:51:07;101622.72;;;44.37;12.25
51849;BME280;38952;51.090;-1.832;2023-05-25T11:53:40;101642.75;;;45.37;11.27
51849;BME280;38952;51.090;-1.832;2023-05-25T11:56:06;101633.47;;;45.51;11.65
51849;BME280;38952;51.090;-1.832;2023-05-25T11:58:39;101641.47;;;45.19;11.65
51849;BME280;38952;51.090;-1.832;2023-05-25T12:01:27;101624.97;;;45.20;11.59
51849;BME280;38952;51.090;-1.832;2023-05-25T12:08:12;101595.75;;;44.99;12.32
51849;BME280;38952;51.090;-1.832;2023-05-25T12:10:55;101615.16;;;45.73;11.65
51849;BME280;38952;51.090;-1.832;2023-05-25T12:13:23;101616.78;;;45.00;11.85
51849;BME280;38952;51.090;-1.832;2023-05-25T12:16:16;101612.78;;;46.14;11.72
51849;BME280;38952;51.090;-1.832;2023-05-25T12:18:53;101611.34;;;47.15;11.09
51849;BME280;38952;51.090;-1.832;2023-05-25T12:21:27;101633.22;;;47.70;10.47
51849;BME280;38952;51.090;-1.832;2023-05-25T12:24:05;101638.84;;;47.89;10.69
51849;BME280;38952;51.090;-1.832;2023-05-25T12:29:30;101628.03;;;47.89;10.41
51849;BME280;38952;51.090;-1.832;2023-05-25T12:32:12;101640.34;;;48.35;10.07
51849;BME280;38952;51.090;-1.832;2023-05-25T12:34:37;101642.81;;;48.57;9.30
51849;BME280;38952;51.090;-1.832;2023-05-25T12:37:03;101633.19;;;48.30;9.44
51849;BME280;38952;51.090;-1.832;2023-05-25T12:39:40;101629.75;;;48.47;9.38
51849;BME280;38952;51.090;-1.832;2023-05-25T12:42:17;101631.53;;;49.00;9.56
51849;BME280;38952;51.090;-1.832;2023-05-25T12:44:54;101610.03;;;48.71;9.33
51849;BME280;38952;51.090;-1.832;2023-05-25T12:47:46;101619.84;;;47.58;9.77
51849;BME280;38952;51.090;-1.832;2023-05-25T12:50:14;101644.78;;;48.30;10.21
51849;BME280;38952;51.090;-1.832;2023-05-25T12:52:44;101637.84;;;49.46;9.67
51849;BME280;38952;51.090;-1.832;2023-05-25T12:55:26;101634.16;;;50.03;9.33
51849;BME280;38952;51.090;-1.832;2023-05-25T12:57:58;101639.13;;;50.67;8.77
51849;BME280;38952;51.090;-1.832;2023-05-25T13:00:24;101644.09;;;50.60;8.78
51849;BME280;38952;51.090;-1.832;2023-05-25T13:02:51;101633.13;;;50.01;8.63
51849;BME280;38952;51.090;-1.832;2023-05-25T13:07:43;101621.41;;;46.32;10.44
51849;BME280;38952;51.090;-1.832;2023-05-25T13:10:09;101631.03;;;47.65;9.86
51849;BME280;38952;51.090;-1.832;2023-05-25T13:12:34;101634.69;;;48.82;9.61
51849;BME280;38952;51.090;-1.832;2023-05-25T13:22:13;101600.66;;;49.76;8.85
51849;BME280;38952;51.090;-1.832;2023-05-25T13:24:40;101582.41;;;48.55;9.29
51849;BME280;38952;51.090;-1.832;2023-05-25T13:27:22;101590.88;;;47.73;9.55